createdAt,value
2018-11-11T00:00:59.863Z,3.95
2018-11-11T00:06:03.047Z,5.45
2018-11-11T00:11:06.264Z,5.17
2018-11-11T00:16:09.416Z,6.50
2018-11-11T00:21:12.619Z,4.60
2018-11-11T00:26:15.803Z,4.53
2018-11-11T00:31:18.967Z,4.00
2018-11-11T00:36:22.136Z,4.30
2018-11-11T00:41:25.311Z,5.70
2018-11-11T00:46:28.492Z,4.42
2018-11-11T00:51:31.668Z,5.00
2018-11-11T00:56:34.854Z,4.93
2018-11-11T01:01:38.029Z,5.17
2018-11-11T01:06:41.248Z,4.60
2018-11-11T01:11:44.415Z,3.83
2018-11-11T01:16:47.591Z,4.72
2018-11-11T01:21:50.752Z,5.78
2018-11-11T01:26:53.912Z,3.37
2018-11-11T01:31:57.148Z,3.27
2018-11-11T01:37:00.320Z,4.60
2018-11-11T01:42:03.548Z,4.17
2018-11-11T01:47:06.723Z,3.90
2018-11-11T01:52:09.891Z,3.87
2018-11-11T01:57:13.080Z,4.00
2018-11-11T02:02:16.270Z,2.92
2018-11-11T02:07:19.427Z,4.53
2018-11-11T02:12:22.729Z,3.72
2018-11-11T02:17:25.917Z,3.42
2018-11-11T02:22:29.089Z,3.52
2018-11-11T02:27:32.302Z,3.62
2018-11-11T02:32:35.504Z,3.73
2018-11-11T02:37:38.739Z,3.77
2018-11-11T02:42:41.984Z,4.70
2018-11-11T02:47:45.161Z,2.90
2018-11-11T02:52:48.660Z,4.03
2018-11-11T02:57:51.874Z,4.42
2018-11-11T03:02:55.048Z,4.35
2018-11-11T03:07:58.230Z,2.57
2018-11-11T03:13:01.433Z,5.33
2018-11-11T03:18:04.661Z,5.00
2018-11-11T03:23:07.847Z,2.60
2018-11-11T03:28:11.047Z,3.85
2018-11-11T03:33:14.278Z,4.28
2018-11-11T03:38:17.466Z,3.47
2018-11-11T03:43:20.681Z,3.58
2018-11-11T03:48:23.913Z,3.70
2018-11-11T03:53:27.109Z,3.37
2018-11-11T03:58:30.334Z,4.10
2018-11-11T04:03:33.584Z,3.17
2018-11-11T04:08:36.780Z,3.58
2018-11-11T04:13:39.951Z,3.58
2018-11-11T04:18:43.152Z,4.70
2018-11-11T04:23:46.350Z,4.17
2018-11-11T04:28:49.593Z,4.30
2018-11-11T04:33:52.774Z,3.12
2018-11-11T04:38:55.970Z,4.80
2018-11-11T04:43:59.127Z,5.40
2018-11-11T04:49:02.305Z,2.75
2018-11-11T04:54:05.819Z,3.10
2018-11-11T04:59:09.080Z,4.53
2018-11-11T05:04:12.383Z,6.17
2018-11-11T05:09:15.563Z,5.90
2018-11-11T05:14:18.739Z,5.10
2018-11-11T05:19:21.929Z,5.30
2018-11-11T05:24:25.116Z,5.23
2018-11-11T05:29:28.288Z,6.40
2018-11-11T05:34:31.472Z,5.87
2018-11-11T05:39:34.631Z,5.47
2018-11-11T05:44:37.868Z,6.00
2018-11-11T05:49:41.044Z,6.58
2018-11-11T05:54:44.241Z,6.55
2018-11-11T05:59:47.447Z,7.47
2018-11-11T06:04:50.657Z,4.90
2018-11-11T06:09:53.852Z,5.35
2018-11-11T06:14:57.009Z,5.95
2018-11-11T06:20:00.184Z,7.63
2018-11-11T06:25:03.396Z,4.75
2018-11-11T06:30:07.499Z,7.70
2018-11-11T06:35:10.713Z,6.45
2018-11-11T06:40:14.245Z,7.97
2018-11-11T06:45:17.423Z,6.35
2018-11-11T06:50:20.591Z,6.77
2018-11-11T06:55:23.804Z,5.60
2018-11-11T07:00:27.025Z,6.22
2018-11-11T07:05:30.228Z,6.28
2018-11-11T07:10:33.407Z,8.05
2018-11-11T07:15:36.579Z,6.42
2018-11-11T07:20:39.743Z,9.80
2018-11-11T07:25:43.065Z,8.70
2018-11-11T07:30:46.335Z,5.62
2018-11-11T07:35:49.537Z,9.17
2018-11-11T07:40:52.909Z,8.60
2018-11-11T07:45:56.112Z,5.83
2018-11-11T07:50:59.364Z,6.13
2018-11-11T07:56:02.615Z,8.30
2018-11-11T08:01:06.007Z,7.45
2018-11-11T08:06:09.273Z,5.58
2018-11-11T08:11:23.991Z,7.10
2018-11-11T08:16:27.168Z,8.18
2018-11-11T08:21:30.456Z,6.57
2018-11-11T08:26:33.624Z,5.55
2018-11-11T08:31:36.931Z,6.17
2018-11-11T08:36:40.182Z,5.40
2018-11-11T08:41:44.556Z,5.53
2018-11-11T08:46:47.736Z,6.23
2018-11-11T08:51:51.040Z,5.37
2018-11-11T08:56:54.249Z,2.55
2018-11-11T09:01:57.411Z,4.20
2018-11-11T09:07:00.646Z,4.30
2018-11-11T09:12:03.823Z,4.12
2018-11-11T09:17:07.067Z,5.28
2018-11-11T09:22:10.207Z,3.87
2018-11-11T09:27:13.452Z,5.13
2018-11-11T09:32:16.637Z,3.47
2018-11-11T09:37:19.807Z,4.30
2018-11-11T09:42:23.115Z,4.47
2018-11-11T09:47:26.232Z,3.08
2018-11-11T09:52:29.423Z,3.43
2018-11-11T09:57:32.621Z,3.55
2018-11-11T10:02:35.900Z,3.40
2018-11-11T10:07:44.516Z,4.10
2018-11-11T10:13:06.393Z,3.47
2018-11-11T10:18:49.167Z,3.60
2018-11-11T10:25:00.448Z,3.35
2018-11-11T10:30:07.490Z,3.83
2018-11-11T10:35:15.176Z,3.33
2018-11-11T10:40:23.552Z,3.12
2018-11-11T10:45:34.240Z,3.75
2018-11-11T10:50:48.803Z,4.10
2018-11-11T10:55:51.956Z,4.25
2018-11-11T11:01:00.516Z,4.03
2018-11-11T11:06:04.195Z,3.20
2018-11-11T11:11:07.319Z,2.60
2018-11-11T11:16:10.500Z,3.58
2018-11-11T11:21:13.671Z,3.55
2018-11-11T11:26:16.925Z,3.30
2018-11-11T11:31:20.099Z,4.47
2018-11-11T11:36:23.348Z,1.98
2018-11-11T11:41:26.595Z,3.03
2018-11-11T11:46:29.695Z,3.70
2018-11-11T11:51:32.919Z,3.83
2018-11-11T11:56:36.092Z,3.10
2018-11-11T12:01:39.259Z,3.43
2018-11-11T12:06:42.443Z,3.47
2018-11-11T12:11:45.668Z,3.67
2018-11-11T12:16:48.896Z,3.52
2018-11-11T12:21:52.047Z,4.90
2018-11-11T12:26:55.226Z,3.45
2018-11-11T12:31:58.440Z,3.50
2018-11-11T12:37:01.633Z,3.85
2018-11-11T12:42:04.837Z,4.37
2018-11-11T12:47:08.052Z,3.85
2018-11-11T12:52:11.296Z,4.30
2018-11-11T12:57:14.518Z,3.65
2018-11-11T13:02:17.988Z,5.57
2018-11-11T13:07:21.320Z,5.78
2018-11-11T13:12:24.692Z,5.42
2018-11-11T13:17:27.700Z,4.93
2018-11-11T13:22:30.903Z,6.12
2018-11-11T13:27:34.128Z,3.63
2018-11-11T13:32:37.488Z,8.25
2018-11-11T13:37:41.086Z,5.27
2018-11-11T13:42:44.232Z,3.73
2018-11-11T13:47:48.190Z,4.65
2018-11-11T13:52:51.347Z,8.83
2018-11-11T13:57:54.521Z,10.93
2018-11-11T14:02:57.803Z,21.27
2018-11-11T14:08:01.014Z,6.15
2018-11-11T14:13:04.403Z,6.47
2018-11-11T14:18:07.687Z,5.57
2018-11-11T14:23:10.934Z,6.22
2018-11-11T14:28:14.146Z,6.75
2018-11-11T14:33:17.620Z,5.53
2018-11-11T14:38:20.958Z,7.25
2018-11-11T14:43:24.151Z,5.97
2018-11-11T14:48:27.385Z,6.80
2018-11-11T14:53:30.555Z,7.45
2018-11-11T14:58:34.356Z,5.28
2018-11-11T15:03:38.089Z,6.50
2018-11-11T15:08:41.580Z,3.87
2018-11-11T15:19:03.675Z,5.00
2018-11-11T15:24:06.861Z,5.75
2018-11-11T15:32:25.397Z,6.62
2018-11-11T15:37:28.752Z,7.37
2018-11-11T15:42:32.504Z,6.23
2018-11-11T15:47:35.599Z,9.30
2018-11-11T15:52:38.871Z,7.42
2018-11-11T15:57:42.516Z,8.50
2018-11-11T16:02:46.167Z,7.15
2018-11-11T16:07:50.328Z,12.07
2018-11-11T16:12:53.999Z,11.08
2018-11-11T16:18:00.993Z,10.35
2018-11-11T16:23:05.587Z,10.77
2018-11-11T16:28:09.026Z,13.57
2018-11-11T16:33:12.918Z,10.07
2018-11-11T16:38:16.495Z,14.30
2018-11-11T16:43:19.900Z,12.23
2018-11-11T16:48:23.474Z,14.38
2018-11-11T16:53:26.667Z,11.97
2018-11-11T16:58:30.148Z,9.23
2018-11-11T17:03:33.547Z,13.75
2018-11-11T17:08:36.959Z,9.83
2018-11-11T17:13:40.344Z,9.13
2018-11-11T17:18:43.754Z,11.25
2018-11-11T17:23:46.911Z,8.95
2018-11-11T17:28:50.178Z,8.73
2018-11-11T17:33:53.447Z,7.00
2018-11-11T17:38:57.006Z,9.40
2018-11-11T17:44:00.261Z,7.10
2018-11-11T17:49:04.083Z,5.78
2018-11-11T17:54:07.412Z,6.17
2018-11-11T17:59:10.930Z,6.13
2018-11-11T18:04:14.703Z,6.00
2018-11-11T18:09:18.396Z,6.10
2018-11-11T18:14:21.651Z,5.83
2018-11-11T18:19:24.823Z,7.30
2018-11-11T18:24:28.250Z,8.45
2018-11-11T18:29:31.669Z,9.03
2018-11-11T18:34:35.359Z,5.85
2018-11-11T18:39:38.715Z,5.28
2018-11-11T18:44:42.372Z,9.80
2018-11-11T18:49:45.570Z,6.50
2018-11-11T18:54:48.887Z,6.58
2018-11-11T18:59:52.085Z,5.03
2018-11-11T19:04:55.328Z,6.30
2018-11-11T19:09:58.886Z,5.70
2018-11-11T19:15:02.044Z,16.57
2018-11-11T19:20:06.800Z,14.33
2018-11-11T19:25:12.591Z,30.60
2018-11-11T19:30:16.646Z,5.80
2018-11-11T19:35:19.956Z,6.35
2018-11-11T19:40:24.480Z,3.77
2018-11-11T19:45:28.813Z,4.87
2018-11-11T19:50:31.987Z,3.15
2018-11-11T19:55:35.248Z,3.10
2018-11-11T20:00:38.436Z,3.95
2018-11-11T20:05:41.649Z,4.75
2018-11-11T20:10:44.817Z,5.00
2018-11-11T20:15:47.970Z,4.40
2018-11-11T20:20:51.148Z,7.22
2018-11-11T20:25:54.303Z,3.90
2018-11-11T20:30:57.472Z,5.07
2018-11-11T20:36:00.723Z,8.78
2018-11-11T20:41:03.820Z,5.10
2018-11-11T20:46:06.992Z,4.50
2018-11-11T20:51:10.275Z,5.83
2018-11-11T20:56:13.573Z,5.85
2018-11-11T21:01:16.627Z,6.78
2018-11-11T21:06:19.803Z,7.97
2018-11-11T21:11:23.128Z,7.15
2018-11-11T21:16:26.284Z,8.80
2018-11-11T21:21:29.521Z,7.40
2018-11-11T21:26:32.629Z,7.10
2018-11-11T21:31:35.828Z,10.05
2018-11-11T21:36:39.029Z,7.22
2018-11-11T21:41:42.540Z,7.85
2018-11-11T21:46:45.708Z,8.17
2018-11-11T21:51:48.905Z,12.13
2018-11-11T21:56:52.080Z,14.20
2018-11-11T22:01:55.252Z,18.03
2018-11-11T22:06:58.472Z,18.37
2018-11-11T22:12:01.661Z,19.62
2018-11-11T22:17:04.916Z,22.27
2018-11-11T22:22:08.044Z,22.80
2018-11-11T22:27:11.216Z,23.07
2018-11-11T22:32:14.404Z,29.82
2018-11-11T22:37:17.556Z,26.68
2018-11-11T22:42:20.741Z,25.27
2018-11-11T22:47:23.904Z,29.52
2018-11-11T22:52:27.087Z,24.30
2018-11-11T22:57:30.284Z,25.75
2018-11-11T23:02:33.511Z,28.67
2018-11-11T23:07:36.799Z,25.57
2018-11-11T23:12:40.111Z,27.17
2018-11-11T23:17:43.348Z,24.67
2018-11-11T23:22:46.523Z,25.97
2018-11-11T23:27:49.695Z,26.37
2018-11-11T23:32:53.052Z,17.48
2018-11-11T23:37:56.246Z,21.87
2018-11-11T23:42:59.416Z,19.63
2018-11-11T23:48:02.583Z,20.32
2018-11-11T23:53:05.776Z,19.65
2018-11-11T23:58:08.944Z,17.47
